createdAt,value
2023-02-02T00:01:52.605Z,2.90
2023-02-02T00:04:25.016Z,2.50
2023-02-02T00:06:57.191Z,2.37
2023-02-02T00:09:29.098Z,3.23
2023-02-02T00:11:59.308Z,3.80
2023-02-02T00:14:32.730Z,3.77
2023-02-02T00:17:02.614Z,3.97
2023-02-02T00:19:33.667Z,3.87
2023-02-02T00:22:03.517Z,3.90
2023-02-02T00:24:33.621Z,4.13
2023-02-02T00:27:03.700Z,3.60
2023-02-02T00:29:36.284Z,4.97
2023-02-02T00:32:06.148Z,4.33
2023-02-02T00:34:35.908Z,3.90
2023-02-02T00:37:05.772Z,3.63
2023-02-02T00:39:35.580Z,2.33
2023-02-02T00:42:05.380Z,4.07
2023-02-02T00:44:50.104Z,3.17
2023-02-02T00:47:20.480Z,3.97
2023-02-02T00:49:50.208Z,4.07
2023-02-02T00:52:19.854Z,4.43
2023-02-02T00:54:49.657Z,4.87
2023-02-02T00:57:19.530Z,4.93
2023-02-02T00:59:51.927Z,4.87
2023-02-02T01:02:21.762Z,4.57
2023-02-02T01:04:51.799Z,4.13
2023-02-02T01:07:21.595Z,3.30
2023-02-02T01:09:51.656Z,3.53
2023-02-02T01:12:21.503Z,3.10
2023-02-02T01:14:54.179Z,3.73
2023-02-02T01:17:23.942Z,4.20
2023-02-02T01:19:54.217Z,3.70
2023-02-02T01:22:23.984Z,3.80
2023-02-02T01:24:53.795Z,3.50
2023-02-02T01:27:23.561Z,3.47
2023-02-02T01:29:55.927Z,3.70
2023-02-02T01:32:25.642Z,4.50
2023-02-02T01:34:55.363Z,3.60
2023-02-02T01:37:25.149Z,3.97
2023-02-02T01:39:54.891Z,3.00
2023-02-02T01:42:26.427Z,2.77
2023-02-02T01:45:22.743Z,3.03
2023-02-02T01:47:56.999Z,2.13
2023-02-02T01:50:30.270Z,3.20
2023-02-02T01:53:03.656Z,2.87
2023-02-02T01:55:35.623Z,3.47
2023-02-02T01:58:09.140Z,3.10
2023-02-02T02:00:45.649Z,2.93
2023-02-02T02:03:19.800Z,3.53
2023-02-02T02:05:52.390Z,3.50
2023-02-02T02:08:24.475Z,3.63
2023-02-02T02:10:54.213Z,2.77
2023-02-02T02:13:46.611Z,3.43
2023-02-02T02:16:29.350Z,2.70
2023-02-02T02:19:15.668Z,3.50
2023-02-02T02:22:09.025Z,2.90
2023-02-02T02:25:20.963Z,2.90
2023-02-02T02:28:22.675Z,3.53
2023-02-02T02:31:08.326Z,3.03
2023-02-02T02:33:49.596Z,3.20
2023-02-02T02:36:27.011Z,3.40
2023-02-02T02:39:03.211Z,3.67
2023-02-02T02:41:41.007Z,4.27
2023-02-02T02:44:14.734Z,3.57
2023-02-02T02:46:45.643Z,4.17
2023-02-02T02:49:18.043Z,3.70
2023-02-02T02:51:49.856Z,3.57
2023-02-02T02:54:23.516Z,4.03
2023-02-02T02:57:19.126Z,3.87
2023-02-02T02:59:56.912Z,3.80
2023-02-02T03:02:38.456Z,4.27
2023-02-02T03:05:27.787Z,5.03
2023-02-02T03:08:07.101Z,5.07
2023-02-02T03:10:38.686Z,4.40
2023-02-02T03:13:11.812Z,4.47
2023-02-02T03:15:43.894Z,4.23
2023-02-02T03:18:14.679Z,4.20
2023-02-02T03:20:48.203Z,4.73
2023-02-02T03:23:18.445Z,4.30
2023-02-02T03:25:48.768Z,4.37
2023-02-02T03:28:19.329Z,4.43
2023-02-02T03:30:50.606Z,3.73
2023-02-02T03:33:21.400Z,3.83
2023-02-02T03:35:54.192Z,4.73
2023-02-02T03:38:23.943Z,5.53
2023-02-02T03:40:54.307Z,4.90
2023-02-02T03:43:25.087Z,6.77
2023-02-02T03:45:59.494Z,7.30
2023-02-02T03:48:29.751Z,5.77
2023-02-02T03:51:02.107Z,6.30
2023-02-02T03:53:32.122Z,7.50
2023-02-02T03:56:01.870Z,5.70
2023-02-02T03:58:31.592Z,5.37
2023-02-02T04:01:05.146Z,5.17
2023-02-02T04:03:35.379Z,5.43
2023-02-02T04:06:08.268Z,5.47
2023-02-02T04:08:39.838Z,5.27
2023-02-02T04:11:12.982Z,4.87
2023-02-02T04:13:43.503Z,4.83
2023-02-02T04:16:13.818Z,4.53
2023-02-02T04:18:43.599Z,4.90
2023-02-02T04:21:16.090Z,4.83
2023-02-02T04:23:45.839Z,4.03
2023-02-02T04:26:15.897Z,5.00
2023-02-02T04:28:45.626Z,4.50
2023-02-02T04:31:15.467Z,5.73
2023-02-02T04:33:45.442Z,5.00
2023-02-02T04:36:18.016Z,3.60
2023-02-02T04:38:51.665Z,4.50
2023-02-02T04:41:21.784Z,4.50
2023-02-02T04:43:51.604Z,4.50
2023-02-02T04:46:21.441Z,4.07
2023-02-02T04:48:52.110Z,4.80
2023-02-02T04:51:24.478Z,5.17
2023-02-02T04:53:54.280Z,4.53
2023-02-02T04:56:24.012Z,4.30
2023-02-02T04:58:57.189Z,4.93
2023-02-02T05:01:27.258Z,4.73
2023-02-02T05:03:57.579Z,4.30
2023-02-02T05:06:29.899Z,3.73
2023-02-02T05:09:00.124Z,3.77
2023-02-02T05:11:31.081Z,3.30
2023-02-02T05:14:00.885Z,3.17
2023-02-02T05:16:30.765Z,3.10
2023-02-02T05:19:00.725Z,3.80
2023-02-02T05:21:33.071Z,3.47
2023-02-02T05:24:03.744Z,3.40
2023-02-02T05:26:33.623Z,3.60
2023-02-02T05:29:03.589Z,4.80
2023-02-02T05:31:34.134Z,3.03
2023-02-02T05:34:03.880Z,3.87
2023-02-02T05:36:36.155Z,3.83
2023-02-02T05:39:05.959Z,3.87
2023-02-02T05:41:35.781Z,3.43
2023-02-02T05:44:06.699Z,4.57
2023-02-02T05:46:36.478Z,3.33
2023-02-02T05:49:06.683Z,4.40
2023-02-02T05:51:44.018Z,5.77
2023-02-02T05:54:17.443Z,5.23
2023-02-02T05:56:47.181Z,4.03
2023-02-02T05:59:17.553Z,5.10
2023-02-02T06:01:47.882Z,4.27
2023-02-02T06:04:18.316Z,4.60
2023-02-02T06:06:50.802Z,4.43
2023-02-02T06:09:20.541Z,3.00
2023-02-02T06:11:50.460Z,4.20
2023-02-02T06:14:20.537Z,4.80
2023-02-02T06:16:50.367Z,5.17
2023-02-02T06:19:20.328Z,4.90
2023-02-02T06:21:52.958Z,4.70
2023-02-02T06:24:22.724Z,4.57
2023-02-02T06:26:52.576Z,5.13
2023-02-02T06:29:22.422Z,4.63
2023-02-02T06:31:52.355Z,4.20
2023-02-02T06:34:22.370Z,4.53
2023-02-02T06:36:54.706Z,3.60
2023-02-02T06:39:24.390Z,4.00
2023-02-02T06:41:54.135Z,3.97
2023-02-02T06:44:23.918Z,3.93
2023-02-02T06:46:53.712Z,4.63
2023-02-02T06:49:23.692Z,4.43
2023-02-02T06:51:56.124Z,4.23
2023-02-02T06:54:26.014Z,3.57
2023-02-02T06:56:56.215Z,3.97
2023-02-02T06:59:25.993Z,3.30
2023-02-02T07:01:55.985Z,4.63
2023-02-02T07:04:25.809Z,4.63
2023-02-02T07:06:58.296Z,4.30
2023-02-02T07:09:28.250Z,3.77
2023-02-02T07:11:59.455Z,6.93
2023-02-02T07:14:29.935Z,6.53
2023-02-02T07:16:59.791Z,7.63
2023-02-02T07:19:29.543Z,7.30
2023-02-02T07:22:02.013Z,7.93
2023-02-02T07:24:33.020Z,6.07
2023-02-02T07:27:02.800Z,7.27
2023-02-02T07:29:32.691Z,6.40
2023-02-02T07:32:02.510Z,6.30
2023-02-02T07:34:32.244Z,7.27
2023-02-02T07:37:04.779Z,6.87
2023-02-02T07:39:34.570Z,5.63
2023-02-02T07:42:05.606Z,5.57
2023-02-02T07:44:35.442Z,5.30
2023-02-02T07:47:05.250Z,6.03
2023-02-02T07:49:35.370Z,5.43
2023-02-02T07:52:07.874Z,4.63
2023-02-02T07:54:37.760Z,4.97
2023-02-02T07:57:07.709Z,5.17
2023-02-02T07:59:37.460Z,6.50
2023-02-02T08:02:07.394Z,6.83
2023-02-02T08:04:37.203Z,5.50
2023-02-02T08:07:09.877Z,6.27
2023-02-02T08:09:39.749Z,6.13
2023-02-02T08:12:09.592Z,4.13
2023-02-02T08:14:39.500Z,4.80
2023-02-02T08:17:09.510Z,4.50
2023-02-02T08:19:39.290Z,5.10
2023-02-02T08:22:11.705Z,4.73
2023-02-02T08:24:43.056Z,5.07
2023-02-02T08:27:13.645Z,3.07
2023-02-02T08:29:43.433Z,4.70
2023-02-02T08:32:13.282Z,4.40
2023-02-02T08:34:43.163Z,4.07
2023-02-02T08:37:15.696Z,4.67
2023-02-02T08:39:45.847Z,4.53
2023-02-02T08:42:16.020Z,4.07
2023-02-02T08:46:03.354Z,3.57
2023-02-02T08:47:38.138Z,3.87
2023-02-02T08:50:09.503Z,3.97
2023-02-02T08:52:41.947Z,4.07
2023-02-02T08:55:12.253Z,4.63
2023-02-02T08:57:42.335Z,5.07
2023-02-02T09:00:13.902Z,5.03
2023-02-02T09:02:43.644Z,4.60
2023-02-02T09:05:13.407Z,3.27
2023-02-02T09:07:47.317Z,2.97
2023-02-02T09:10:17.213Z,4.33
2023-02-02T09:12:47.065Z,2.63
2023-02-02T09:15:16.919Z,4.87
2023-02-02T09:17:46.640Z,4.20
2023-02-02T09:20:16.423Z,3.43
2023-02-02T09:22:48.793Z,3.43
2023-02-02T09:25:18.733Z,5.27
2023-02-02T09:27:48.481Z,5.93
2023-02-02T09:30:18.629Z,5.57
2023-02-02T09:32:51.239Z,4.67
2023-02-02T09:35:21.016Z,5.30
2023-02-02T09:37:53.512Z,4.73
2023-02-02T09:40:27.970Z,6.37
2023-02-02T09:43:08.456Z,5.23
2023-02-02T09:45:44.244Z,5.00
2023-02-02T09:48:29.836Z,5.27
2023-02-02T09:51:02.471Z,5.00
2023-02-02T09:53:55.240Z,5.70
2023-02-02T09:56:30.259Z,5.63
2023-02-02T09:59:18.808Z,7.30
2023-02-02T10:01:52.899Z,8.13
2023-02-02T10:04:29.428Z,8.60
2023-02-02T10:07:02.057Z,4.60
2023-02-02T10:09:43.784Z,6.37
2023-02-02T10:12:28.592Z,5.97
2023-02-02T10:15:04.409Z,6.63
2023-02-02T10:17:43.809Z,5.60
2023-02-02T10:20:25.707Z,4.50
2023-02-02T10:22:59.023Z,5.33
2023-02-02T10:25:32.577Z,5.30
2023-02-02T10:28:09.902Z,5.80
2023-02-02T10:30:48.117Z,4.90
2023-02-02T10:33:28.884Z,5.50
2023-02-02T10:36:05.223Z,5.67
2023-02-02T10:38:44.994Z,5.17
2023-02-02T10:41:27.094Z,3.57
2023-02-02T10:44:12.145Z,5.97
2023-02-02T10:46:45.053Z,5.47
2023-02-02T10:49:20.481Z,6.13
2023-02-02T10:51:58.284Z,4.03
2023-02-02T10:54:57.817Z,4.70
2023-02-02T10:57:49.982Z,5.83
2023-02-02T11:00:25.602Z,4.97
2023-02-02T11:02:56.347Z,4.57
2023-02-02T11:05:40.148Z,3.53
2023-02-02T11:08:18.471Z,5.87
2023-02-02T11:10:49.762Z,5.20
2023-02-02T11:13:30.404Z,4.20
2023-02-02T11:16:23.175Z,6.00
2023-02-02T11:18:53.402Z,5.43
2023-02-02T11:21:27.026Z,5.97
2023-02-02T11:23:58.674Z,4.90
2023-02-02T11:26:29.907Z,4.37
2023-02-02T11:29:02.611Z,4.50
2023-02-02T11:31:37.106Z,4.90
2023-02-02T11:34:20.910Z,5.03
2023-02-02T11:37:18.795Z,4.47
2023-02-02T11:39:48.652Z,4.83
2023-02-02T11:42:20.258Z,4.73
2023-02-02T11:44:55.132Z,5.30
2023-02-02T11:47:29.685Z,3.70
2023-02-02T11:50:02.136Z,5.23
2023-02-02T11:52:36.176Z,4.80
2023-02-02T11:55:18.277Z,4.77
2023-02-02T11:58:25.053Z,4.93
2023-02-02T12:01:00.541Z,6.63
2023-02-02T12:03:33.304Z,5.80
2023-02-02T12:06:04.911Z,5.73
2023-02-02T12:08:34.678Z,6.20
2023-02-02T12:11:08.242Z,5.20
2023-02-02T12:13:53.190Z,5.63
2023-02-02T12:16:43.488Z,5.10
2023-02-02T12:19:44.337Z,5.07
2023-02-02T12:22:27.424Z,5.73
2023-02-02T12:25:03.280Z,5.20
2023-02-02T12:27:42.592Z,4.40
2023-02-02T12:30:32.584Z,5.43
2023-02-02T12:33:24.304Z,4.33
2023-02-02T12:36:14.958Z,3.20
2023-02-02T12:39:06.508Z,4.33
2023-02-02T12:42:05.257Z,5.53
2023-02-02T12:44:45.779Z,5.53
2023-02-02T12:47:24.240Z,5.23
2023-02-02T12:50:07.605Z,2.20
2023-02-02T12:52:54.585Z,5.37
2023-02-02T12:55:33.041Z,4.60
2023-02-02T12:58:15.792Z,4.53
2023-02-02T13:01:04.499Z,3.80
2023-02-02T13:03:45.114Z,4.20
2023-02-02T13:06:40.315Z,2.00
2023-02-02T13:09:15.015Z,4.17
2023-02-02T13:11:50.159Z,4.00
2023-02-02T13:14:25.544Z,4.57
2023-02-02T13:17:00.039Z,3.83
2023-02-02T13:19:35.226Z,4.40
2023-02-02T13:22:14.559Z,5.60
2023-02-02T13:24:47.775Z,4.90
2023-02-02T13:27:22.671Z,4.57
2023-02-02T13:29:57.480Z,3.67
2023-02-02T13:32:32.155Z,4.30
2023-02-02T13:35:06.323Z,3.57
2023-02-02T13:37:45.509Z,4.13
2023-02-02T13:40:27.073Z,4.00
2023-02-02T13:43:03.448Z,3.77
2023-02-02T13:45:45.613Z,4.13
2023-02-02T13:48:25.884Z,3.47
2023-02-02T13:51:15.186Z,3.90
2023-02-02T13:54:01.586Z,4.50
2023-02-02T13:56:43.379Z,4.93
2023-02-02T13:59:50.594Z,3.87
2023-02-02T14:02:26.687Z,4.40
2023-02-02T14:04:59.221Z,5.40
2023-02-02T14:07:41.928Z,5.80
2023-02-02T14:10:28.423Z,6.23
2023-02-02T14:13:01.501Z,4.90
2023-02-02T14:15:42.970Z,4.20
2023-02-02T14:18:12.843Z,3.90
2023-02-02T14:20:46.294Z,3.90
2023-02-02T14:23:51.308Z,4.30
2023-02-02T14:26:44.380Z,4.43
2023-02-02T14:29:39.641Z,4.20
2023-02-02T14:32:34.886Z,4.43
2023-02-02T14:35:40.470Z,4.33
2023-02-02T14:38:14.953Z,4.60
2023-02-02T14:40:52.519Z,4.57
2023-02-02T14:43:44.838Z,5.00
2023-02-02T14:46:48.569Z,5.30
2023-02-02T14:49:24.646Z,4.70
2023-02-02T14:51:58.565Z,4.23
2023-02-02T14:54:36.639Z,4.90
2023-02-02T14:57:10.502Z,4.77
2023-02-02T14:59:48.662Z,5.07
2023-02-02T15:02:22.392Z,4.57
2023-02-02T15:04:52.617Z,4.63
2023-02-02T15:07:52.336Z,4.90
2023-02-02T15:10:53.911Z,5.13
2023-02-02T15:13:24.861Z,5.33
2023-02-02T15:16:14.206Z,5.57
2023-02-02T15:18:47.605Z,5.40
2023-02-02T15:21:22.130Z,5.70
2023-02-02T15:23:52.004Z,5.10
2023-02-02T15:26:26.697Z,5.00
2023-02-02T15:29:02.719Z,4.93
2023-02-02T15:31:38.650Z,4.67
2023-02-02T15:34:20.908Z,5.33
2023-02-02T15:36:54.438Z,3.97
2023-02-02T15:39:30.851Z,4.40
2023-02-02T15:42:16.840Z,3.50
2023-02-02T15:44:46.888Z,4.47
2023-02-02T15:47:23.363Z,4.03
2023-02-02T15:49:53.142Z,3.23
2023-02-02T15:52:29.083Z,3.90
2023-02-02T15:55:00.999Z,3.80
2023-02-02T15:57:33.486Z,3.63
2023-02-02T16:00:24.222Z,3.80
2023-02-02T16:03:01.506Z,3.53
2023-02-02T16:05:47.643Z,3.83
2023-02-02T16:08:22.636Z,4.40
2023-02-02T16:10:52.741Z,3.80
2023-02-02T16:13:28.528Z,5.60
2023-02-02T16:16:00.646Z,5.97
2023-02-02T16:18:33.349Z,6.60
2023-02-02T16:21:07.671Z,7.43
2023-02-02T16:23:38.829Z,7.13
2023-02-02T16:26:10.293Z,8.40
2023-02-02T16:28:40.333Z,8.47
2023-02-02T16:31:10.980Z,9.00
2023-02-02T16:33:45.784Z,9.57
2023-02-02T16:36:25.938Z,10.33
2023-02-02T16:38:58.013Z,10.10
2023-02-02T16:41:32.402Z,9.63
2023-02-02T16:44:32.444Z,8.17
2023-02-02T16:47:03.172Z,9.80
2023-02-02T16:49:36.371Z,9.50
2023-02-02T16:52:16.319Z,9.90
2023-02-02T16:54:54.339Z,9.93
2023-02-02T16:57:28.557Z,9.33
2023-02-02T17:00:01.891Z,9.90
2023-02-02T17:02:35.452Z,9.23
2023-02-02T17:05:13.244Z,10.13
2023-02-02T17:07:50.808Z,9.93
2023-02-02T17:10:31.059Z,8.67
2023-02-02T17:13:01.979Z,9.53
2023-02-02T17:15:35.851Z,9.97
2023-02-02T17:18:07.617Z,9.23
2023-02-02T17:20:40.077Z,8.90
2023-02-02T17:23:11.439Z,8.87
2023-02-02T17:25:45.714Z,8.83
2023-02-02T17:28:18.879Z,8.03
2023-02-02T17:30:50.072Z,9.10
2023-02-02T17:33:21.867Z,8.57
2023-02-02T17:35:56.228Z,9.10
2023-02-02T17:38:28.016Z,6.87
2023-02-02T17:41:01.682Z,8.03
2023-02-02T17:43:32.148Z,6.03
2023-02-02T17:46:02.380Z,7.83
2023-02-02T17:48:32.798Z,8.40
2023-02-02T17:51:07.318Z,7.60
2023-02-02T17:53:37.170Z,7.67
2023-02-02T17:56:07.505Z,6.77
2023-02-02T17:58:37.377Z,7.63
2023-02-02T18:01:07.939Z,7.60
2023-02-02T18:03:41.643Z,6.93
2023-02-02T18:06:15.062Z,7.20
2023-02-02T18:08:45.652Z,7.10
2023-02-02T18:11:18.809Z,7.67
2023-02-02T18:13:48.945Z,7.13
2023-02-02T18:16:19.920Z,7.67
2023-02-02T18:18:49.746Z,7.13
2023-02-02T18:21:22.198Z,7.27
2023-02-02T18:23:52.139Z,5.87
2023-02-02T18:26:24.456Z,8.23
2023-02-02T18:28:54.873Z,8.30
2023-02-02T18:31:26.959Z,7.83
2023-02-02T18:33:57.335Z,7.10
2023-02-02T18:36:29.797Z,8.80
2023-02-02T18:38:59.909Z,8.70
2023-02-02T18:41:30.433Z,9.20
2023-02-02T18:44:00.721Z,9.30
2023-02-02T18:46:33.952Z,9.37
2023-02-02T18:49:04.031Z,10.47
2023-02-02T18:51:36.419Z,10.80
2023-02-02T18:54:06.325Z,10.77
2023-02-02T18:56:36.144Z,11.17
2023-02-02T18:59:06.597Z,11.07
2023-02-02T19:01:37.411Z,11.80
2023-02-02T19:04:07.701Z,10.27
2023-02-02T19:06:52.796Z,10.33
2023-02-02T19:09:22.623Z,11.27
2023-02-02T19:11:55.050Z,12.03
2023-02-02T19:14:27.715Z,11.20
2023-02-02T19:17:02.229Z,10.97
2023-02-02T19:19:36.022Z,12.37
2023-02-02T19:22:20.093Z,12.47
2023-02-02T19:24:50.556Z,11.40
2023-02-02T19:27:22.400Z,12.60
2023-02-02T19:29:53.888Z,13.23
2023-02-02T19:32:27.000Z,13.73
2023-02-02T19:34:58.730Z,12.50
2023-02-02T19:37:33.036Z,11.57
2023-02-02T19:40:19.409Z,12.03
2023-02-02T19:42:52.401Z,12.37
2023-02-02T19:45:25.413Z,11.60
2023-02-02T19:47:57.229Z,11.97
2023-02-02T19:50:29.669Z,11.10
2023-02-02T19:53:06.778Z,12.20
2023-02-02T19:55:39.298Z,13.13
2023-02-02T19:58:18.751Z,12.13
2023-02-02T20:00:49.458Z,13.10
2023-02-02T20:03:21.611Z,12.60
2023-02-02T20:05:53.662Z,12.90
2023-02-02T20:08:41.751Z,12.73
2023-02-02T20:11:31.997Z,12.77
2023-02-02T20:14:03.101Z,13.60
2023-02-02T20:16:40.887Z,13.37
2023-02-02T20:19:19.584Z,12.10
2023-02-02T20:21:51.749Z,12.47
2023-02-02T20:24:27.363Z,12.10
2023-02-02T20:26:58.784Z,12.33
2023-02-02T20:29:35.969Z,12.33
2023-02-02T20:32:07.809Z,13.03
2023-02-02T20:34:43.303Z,12.97
2023-02-02T20:37:23.970Z,12.37
2023-02-02T20:40:00.295Z,11.87
2023-02-02T20:42:31.310Z,12.30
2023-02-02T20:45:01.262Z,11.40
2023-02-02T20:47:31.046Z,10.90
2023-02-02T20:50:01.289Z,11.73
2023-02-02T20:52:31.203Z,12.30
2023-02-02T20:55:03.852Z,12.10
2023-02-02T20:57:33.833Z,9.87
2023-02-02T21:00:03.963Z,11.03
2023-02-02T21:02:33.788Z,11.30
2023-02-02T21:05:04.822Z,10.80
2023-02-02T21:07:34.736Z,10.93
2023-02-02T21:10:07.853Z,10.73
2023-02-02T21:12:37.652Z,11.27
2023-02-02T21:15:08.095Z,10.27
2023-02-02T21:17:37.828Z,10.07
2023-02-02T21:20:08.850Z,10.57
2023-02-02T21:22:38.569Z,9.43
2023-02-02T21:25:12.532Z,10.27
2023-02-02T21:27:44.622Z,10.30
2023-02-02T21:30:16.067Z,9.97
2023-02-02T21:32:45.902Z,9.97
2023-02-02T21:35:15.948Z,10.03
2023-02-02T21:37:47.385Z,9.90
2023-02-02T21:40:28.793Z,9.27
2023-02-02T21:43:01.652Z,10.13
2023-02-02T21:45:37.275Z,9.93
2023-02-02T21:48:23.239Z,9.17
2023-02-02T21:50:53.231Z,8.60
2023-02-02T21:53:25.212Z,10.20
2023-02-02T21:56:00.182Z,9.63
2023-02-02T21:58:36.332Z,8.93
2023-02-02T22:01:21.344Z,9.40
2023-02-02T22:03:51.937Z,8.23
2023-02-02T22:06:31.133Z,9.77
2023-02-02T22:09:05.013Z,9.67
2023-02-02T22:11:45.724Z,10.30
2023-02-02T22:14:20.563Z,9.40
2023-02-02T22:16:53.183Z,8.20
2023-02-02T22:19:35.732Z,10.37
2023-02-02T22:22:18.332Z,10.50
2023-02-02T22:24:50.885Z,10.83
2023-02-02T22:27:26.298Z,10.50
2023-02-02T22:30:03.729Z,11.57
2023-02-02T22:32:33.472Z,10.37
2023-02-02T22:35:03.185Z,10.20
2023-02-02T22:37:32.990Z,11.20
2023-02-02T22:40:03.136Z,11.10
2023-02-02T22:42:35.580Z,10.87
2023-02-02T22:45:05.503Z,11.10
2023-02-02T22:47:35.457Z,11.10
2023-02-02T22:50:05.174Z,11.07
2023-02-02T22:52:34.912Z,10.87
2023-02-02T22:55:04.681Z,11.17
2023-02-02T22:57:37.081Z,9.90
2023-02-02T23:00:10.612Z,10.50
2023-02-02T23:02:40.475Z,10.77
2023-02-02T23:05:12.705Z,10.87
2023-02-02T23:07:44.204Z,10.27
2023-02-02T23:10:16.103Z,10.37
2023-02-02T23:12:49.062Z,10.33
2023-02-02T23:15:19.610Z,10.07
2023-02-02T23:17:49.745Z,10.60
2023-02-02T23:20:19.682Z,11.17
2023-02-02T23:22:49.450Z,11.03
2023-02-02T23:25:20.215Z,11.87
2023-02-02T23:27:52.655Z,11.40
2023-02-02T23:30:24.563Z,11.37
2023-02-02T23:32:54.699Z,10.00
2023-02-02T23:35:24.411Z,10.93
2023-02-02T23:37:54.351Z,10.73
2023-02-02T23:40:24.474Z,10.50
2023-02-02T23:42:57.395Z,11.27
2023-02-02T23:45:27.446Z,10.50
2023-02-02T23:47:57.421Z,10.13
2023-02-02T23:50:27.675Z,10.73
2023-02-02T23:52:58.105Z,9.80
2023-02-02T23:55:27.950Z,10.50
2023-02-02T23:58:00.332Z,8.47
